createdAt,value
2023-04-04T22:14:13.391Z,17.33
2023-04-04T22:16:43.723Z,21.45
2023-04-04T22:19:12.172Z,21.33
2023-04-04T22:24:27.817Z,18.65
2023-04-04T22:26:56.102Z,18.67
2023-04-04T22:29:24.492Z,18.85
2023-04-04T22:31:52.689Z,18.13
2023-04-04T22:34:21.217Z,19.83
2023-04-04T22:36:49.521Z,19.90
2023-04-04T22:39:17.918Z,20.50
2023-04-04T22:41:45.979Z,24.38
2023-04-04T22:44:14.228Z,19.95
2023-04-04T22:46:42.532Z,28.58
2023-04-04T22:49:10.871Z,28.38
2023-04-04T22:51:39.290Z,58.30
2023-04-04T22:54:07.563Z,65.63
2023-04-04T22:56:35.817Z,77.22
2023-04-04T22:59:04.312Z,28.95
2023-04-04T23:01:32.523Z,41.30
2023-04-04T23:04:00.909Z,37.55
2023-04-04T23:06:29.184Z,57.03
2023-04-04T23:08:57.518Z,50.88
2023-04-04T23:11:26.156Z,34.30
2023-04-04T23:13:54.334Z,44.65
2023-04-04T23:16:22.754Z,44.30
2023-04-04T23:18:50.924Z,39.15
2023-04-04T23:21:19.285Z,31.40
2023-04-04T23:23:47.514Z,29.02
2023-04-04T23:26:15.608Z,141.48
2023-04-04T23:28:43.967Z,86.65
2023-04-04T23:31:12.247Z,102.55
2023-04-04T23:33:40.533Z,102.63
2023-04-04T23:36:09.306Z,68.78
2023-04-04T23:38:37.620Z,49.78
2023-04-04T23:41:06.004Z,33.80
2023-04-04T23:43:34.425Z,41.60
2023-04-04T23:46:03.592Z,33.05
2023-04-04T23:48:32.545Z,24.27
2023-04-04T23:51:00.698Z,21.67
2023-04-04T23:53:29.328Z,19.15
2023-04-04T23:55:57.654Z,24.20
2023-04-04T23:58:25.839Z,27.98
